Página principal
METAR-TAF:

METAR-TAF

Aeroportos :

Base Aérea de Thule

Thule, Gronelândia

latitude: 76-32N, longitude: 068-42W, altura: 77 m

Observação actual do tempo

O boletim foi feito há 43 minutos, às 22:56 UTC
Vento 7 kt de este
Temperatura -27°C
Humidade 75%
Pressão 1004 hPa
Visibilidade 10 km ou mais
Poucas nuvensa uma altura de 6500 ft

METAR: BGTL 202256Z AUTO 09007KT 9999 FEW065 M27/M30 A2965 RMK AO2 SLP034 T12721305 TSNO CHINO RWY26 $

Hora: 19:39 (23:39 UTC)


TAF: em falta

Observações e previsões do tempo de mais de 4000 aeroportos (mensagens METAR e TAF).

As estações disponíveis são os pontos amarelos e vermelhos sobre o mapa.

Mova o rato sobre o mapa para ver o nome da estação.

Depois clique no ponto para visualizar as observações e previsões meteorológicas.

Para alterar o mapa : clique nos botões verdes com uma cruz preta para aumentar o zoom; no botão verde com uma pitada de zoom; ou nas setas verdes para mapas adjacentes.


METAR-TAF: